Amburgey, KY

8:18 PM EDT on May 27, 2015 (GMT -0400)
KYTC_RWIS | | Change Station
CLOSE
Current Station
Personal Weather Station
Location: Eolia, KY
Elevation: 2612 ft
Nearby Weather Stations

Elev 2612 ft 37.08 °N, 82.81 °W | Updated 33 minutes ago

Clear
Clear
71 °F
Feels Like 75 °F
N
2
Wind Variable Wind from NNE
Gusts 0.0 mph

Today
High -- | Low -- °F
--% Chance of Precip.
Yesterday
High -- | Low -- °F
Precip. -- in
6:16 AM 8:43 PM
Waxing Gibbous, 71% visible
Pressure 30.20 in
Visibility 10.0 miles
Clouds Scattered Clouds 4400 ft
Heat Index 75 °F
Dew Point 59 °F
Humidity 65%
Rainfall in
Snow Depth Not available.
UV 0 out of 12
Pollen 6.60 out of 12
Air Quality Not available.
Flu Activity Sporadic
METAR KI35 272355Z AUTO 00000KT 10SM SCT044 23/16 A3020 RMK AO1

More Conditions Fewer Conditions

Pressure 30.20 in
Visibility 10.0 miles
Clouds Scattered Clouds 4400 ft
Heat Index 75 °F
Dew Point 59 °F
Humidity 65%
Rainfall in
Snow Depth Not available.
UV 0 out of 12
Pollen 6.60 out of 12
Air Quality Not available.
Flu Activity Sporadic
METAR KI35 272355Z AUTO 00000KT 10SM SCT044 23/16 A3020 RMK AO1

More Conditions Fewer Conditions

10-Day Weather Forecast

Almanac

Astronomy

May. 27, 2015 Rise Set
Actual Time
Civil Twilight
Nautical Twilight
Astronomical Twilight
Moon
Length of Visible Light
Length of Day
Tomorrow will be .
, % of the Moon is Illuminated

Today's Extremes

State Highs State Lows

Community

WunderPhotos

Upload Photos

1,824,829 photos uploaded!

WunderBlogs® & News

Nearby

Air Quality

  Air Quality AQ Index Pollutant
Not available.

Snow Depth

Station Depth Elevation

Earthquake Activity

City Distance Mag. Time & Date
Minimum magnitude displayed is 2.5.

Coastal Water Temperatures

Place Temperature

Stations

Nearby Weather Stations

Station Location Temp. Windchill Dew Point Humidity Wind Precip. Elev Updated Type